sensor_id;sensor_type;location;lat;lon;timestamp;P1;durP1;ratioP1;P2;durP2;ratioP2
5357;SDS011;2702;51.014;7.170;2023-10-13T00:00:26;8.60;;;7.80;;
5357;SDS011;2702;51.014;7.170;2023-10-13T00:02:59;10.13;;;7.97;;
5357;SDS011;2702;51.014;7.170;2023-10-13T00:05:27;9.77;;;8.70;;
5357;SDS011;2702;51.014;7.170;2023-10-13T00:07:58;9.07;;;7.90;;
5357;SDS011;2702;51.014;7.170;2023-10-13T00:10:29;8.30;;;7.67;;
5357;SDS011;2702;51.014;7.170;2023-10-13T00:12:56;9.40;;;8.60;;
5357;SDS011;2702;51.014;7.170;2023-10-13T00:15:32;11.10;;;9.30;;
5357;SDS011;2702;51.014;7.170;2023-10-13T00:18:06;9.90;;;8.90;;
5357;SDS011;2702;51.014;7.170;2023-10-13T00:20:39;9.33;;;8.50;;
5357;SDS011;2702;51.014;7.170;2023-10-13T00:23:06;9.10;;;8.20;;
5357;SDS011;2702;51.014;7.170;2023-10-13T00:25:32;14.23;;;8.53;;
5357;SDS011;2702;51.014;7.170;2023-10-13T00:28:09;9.90;;;8.90;;
5357;SDS011;2702;51.014;7.170;2023-10-13T00:30:36;9.27;;;8.37;;
5357;SDS011;2702;51.014;7.170;2023-10-13T00:33:06;10.00;;;8.70;;
5357;SDS011;2702;51.014;7.170;2023-10-13T00:35:35;9.63;;;8.83;;
5357;SDS011;2702;51.014;7.170;2023-10-13T00:38:02;10.17;;;8.70;;
5357;SDS011;2702;51.014;7.170;2023-10-13T00:40:49;10.37;;;9.07;;
5357;SDS011;2702;51.014;7.170;2023-10-13T00:43:26;10.30;;;9.30;;
5357;SDS011;2702;51.014;7.170;2023-10-13T00:45:56;10.73;;;8.77;;
5357;SDS011;2702;51.014;7.170;2023-10-13T00:48:29;9.23;;;8.30;;
5357;SDS011;2702;51.014;7.170;2023-10-13T00:51:05;10.63;;;9.50;;
5357;SDS011;2702;51.014;7.170;2023-10-13T00:53:36;10.63;;;9.57;;
5357;SDS011;2702;51.014;7.170;2023-10-13T00:56:06;9.00;;;8.20;;
5357;SDS011;2702;51.014;7.170;2023-10-13T00:58:33;9.33;;;8.47;;
5357;SDS011;2702;51.014;7.170;2023-10-13T01:01:01;9.57;;;8.30;;
5357;SDS011;2702;51.014;7.170;2023-10-13T01:03:49;9.17;;;8.27;;
5357;SDS011;2702;51.014;7.170;2023-10-13T01:06:38;10.33;;;9.33;;
5357;SDS011;2702;51.014;7.170;2023-10-13T01:09:06;9.37;;;8.10;;
5357;SDS011;2702;51.014;7.170;2023-10-13T01:11:43;11.40;;;9.17;;
5357;SDS011;2702;51.014;7.170;2023-10-13T01:14:18;9.33;;;8.43;;
5357;SDS011;2702;51.014;7.170;2023-10-13T01:16:46;9.63;;;8.70;;
5357;SDS011;2702;51.014;7.170;2023-10-13T01:19:18;8.83;;;8.00;;
5357;SDS011;2702;51.014;7.170;2023-10-13T01:21:51;10.30;;;9.27;;
5357;SDS011;2702;51.014;7.170;2023-10-13T01:24:28;11.27;;;9.90;;
5357;SDS011;2702;51.014;7.170;2023-10-13T01:27:01;10.17;;;8.63;;
5357;SDS011;2702;51.014;7.170;2023-10-13T01:29:43;10.10;;;8.97;;
5357;SDS011;2702;51.014;7.170;2023-10-13T01:32:31;10.97;;;8.47;;
5357;SDS011;2702;51.014;7.170;2023-10-13T01:34:57;8.93;;;8.03;;
5357;SDS011;2702;51.014;7.170;2023-10-13T01:37:31;10.60;;;9.70;;
5357;SDS011;2702;51.014;7.170;2023-10-13T01:39:57;10.73;;;8.53;;
5357;SDS011;2702;51.014;7.170;2023-10-13T01:42:24;10.47;;;9.47;;
5357;SDS011;2702;51.014;7.170;2023-10-13T01:44:51;10.37;;;9.10;;
5357;SDS011;2702;51.014;7.170;2023-10-13T01:47:17;11.10;;;9.50;;
5357;SDS011;2702;51.014;7.170;2023-10-13T01:49:43;11.50;;;9.90;;
5357;SDS011;2702;51.014;7.170;2023-10-13T01:52:14;11.00;;;9.83;;
5357;SDS011;2702;51.014;7.170;2023-10-13T01:54:45;11.10;;;10.10;;
5357;SDS011;2702;51.014;7.170;2023-10-13T01:57:14;11.20;;;10.10;;
5357;SDS011;2702;51.014;7.170;2023-10-13T01:59:44;11.40;;;10.23;;
5357;SDS011;2702;51.014;7.170;2023-10-13T02:02:14;11.13;;;9.80;;
5357;SDS011;2702;51.014;7.170;2023-10-13T02:04:45;11.90;;;10.20;;
5357;SDS011;2702;51.014;7.170;2023-10-13T02:07:22;10.50;;;9.60;;
5357;SDS011;2702;51.014;7.170;2023-10-13T02:09:52;10.57;;;9.47;;
5357;SDS011;2702;51.014;7.170;2023-10-13T02:12:22;12.13;;;10.43;;
5357;SDS011;2702;51.014;7.170;2023-10-13T02:14:54;10.53;;;9.43;;
5357;SDS011;2702;51.014;7.170;2023-10-13T02:17:21;10.77;;;9.67;;
5357;SDS011;2702;51.014;7.170;2023-10-13T02:19:52;11.63;;;10.17;;
5357;SDS011;2702;51.014;7.170;2023-10-13T02:22:19;11.47;;;10.37;;
5357;SDS011;2702;51.014;7.170;2023-10-13T02:24:57;13.00;;;9.10;;
5357;SDS011;2702;51.014;7.170;2023-10-13T02:27:30;11.20;;;10.00;;
5357;SDS011;2702;51.014;7.170;2023-10-13T02:30:06;10.90;;;10.00;;
5357;SDS011;2702;51.014;7.170;2023-10-13T02:32:40;10.93;;;9.83;;
5357;SDS011;2702;51.014;7.170;2023-10-13T02:35:10;10.50;;;8.87;;
5357;SDS011;2702;51.014;7.170;2023-10-13T02:37:43;11.13;;;10.03;;
5357;SDS011;2702;51.014;7.170;2023-10-13T02:40:11;20.03;;;10.90;;
5357;SDS011;2702;51.014;7.170;2023-10-13T02:42:37;12.47;;;10.80;;
5357;SDS011;2702;51.014;7.170;2023-10-13T02:45:04;10.53;;;9.57;;
5357;SDS011;2702;51.014;7.170;2023-10-13T02:47:33;10.67;;;9.53;;
5357;SDS011;2702;51.014;7.170;2023-10-13T02:49:59;11.53;;;10.37;;
5357;SDS011;2702;51.014;7.170;2023-10-13T02:52:26;11.30;;;9.70;;
5357;SDS011;2702;51.014;7.170;2023-10-13T02:54:53;11.63;;;10.43;;
5357;SDS011;2702;51.014;7.170;2023-10-13T02:57:19;11.30;;;10.30;;
5357;SDS011;2702;51.014;7.170;2023-10-13T02:59:47;12.50;;;10.90;;
5357;SDS011;2702;51.014;7.170;2023-10-13T03:02:14;11.47;;;9.30;;
5357;SDS011;2702;51.014;7.170;2023-10-13T03:04:50;10.33;;;9.30;;
5357;SDS011;2702;51.014;7.170;2023-10-13T03:07:16;11.97;;;10.63;;
5357;SDS011;2702;51.014;7.170;2023-10-13T03:09:49;10.70;;;9.60;;
5357;SDS011;2702;51.014;7.170;2023-10-13T03:12:16;11.50;;;10.30;;
5357;SDS011;2702;51.014;7.170;2023-10-13T03:14:44;13.77;;;10.90;;
5357;SDS011;2702;51.014;7.170;2023-10-13T03:17:13;12.77;;;10.73;;
5357;SDS011;2702;51.014;7.170;2023-10-13T03:19:43;12.07;;;10.80;;
5357;SDS011;2702;51.014;7.170;2023-10-13T03:22:15;11.43;;;10.33;;
5357;SDS011;2702;51.014;7.170;2023-10-13T03:24:42;12.50;;;10.03;;
5357;SDS011;2702;51.014;7.170;2023-10-13T03:27:13;13.70;;;11.60;;
5357;SDS011;2702;51.014;7.170;2023-10-13T03:29:44;12.57;;;11.27;;
5357;SDS011;2702;51.014;7.170;2023-10-13T03:32:20;12.37;;;10.40;;
5357;SDS011;2702;51.014;7.170;2023-10-13T03:34:46;13.83;;;12.30;;
5357;SDS011;2702;51.014;7.170;2023-10-13T03:37:38;11.63;;;10.53;;
5357;SDS011;2702;51.014;7.170;2023-10-13T03:40:08;12.40;;;10.00;;
5357;SDS011;2702;51.014;7.170;2023-10-13T03:43:06;12.03;;;10.83;;
5357;SDS011;2702;51.014;7.170;2023-10-13T03:45:38;12.60;;;10.73;;
5357;SDS011;2702;51.014;7.170;2023-10-13T03:48:09;12.37;;;11.10;;
5357;SDS011;2702;51.014;7.170;2023-10-13T03:50:40;11.90;;;10.77;;
5357;SDS011;2702;51.014;7.170;2023-10-13T03:53:25;13.33;;;11.40;;
5357;SDS011;2702;51.014;7.170;2023-10-13T03:55:51;13.73;;;10.80;;
5357;SDS011;2702;51.014;7.170;2023-10-13T03:58:37;13.27;;;11.77;;
5357;SDS011;2702;51.014;7.170;2023-10-13T04:01:08;12.43;;;11.17;;
5357;SDS011;2702;51.014;7.170;2023-10-13T04:03:40;12.00;;;10.90;;
5357;SDS011;2702;51.014;7.170;2023-10-13T04:06:31;12.67;;;11.40;;
5357;SDS011;2702;51.014;7.170;2023-10-13T04:09:19;11.60;;;10.40;;
5357;SDS011;2702;51.014;7.170;2023-10-13T04:11:55;13.30;;;11.33;;
5357;SDS011;2702;51.014;7.170;2023-10-13T04:14:28;10.77;;;9.70;;
5357;SDS011;2702;51.014;7.170;2023-10-13T04:17:20;12.27;;;11.13;;
5357;SDS011;2702;51.014;7.170;2023-10-13T04:19:52;12.07;;;10.83;;
5357;SDS011;2702;51.014;7.170;2023-10-13T04:22:45;13.27;;;11.77;;
5357;SDS011;2702;51.014;7.170;2023-10-13T04:25:15;11.80;;;10.70;;
5357;SDS011;2702;51.014;7.170;2023-10-13T04:28:01;12.80;;;10.67;;
5357;SDS011;2702;51.014;7.170;2023-10-13T04:30:49;11.37;;;9.97;;
5357;SDS011;2702;51.014;7.170;2023-10-13T04:33:25;16.47;;;11.50;;
5357;SDS011;2702;51.014;7.170;2023-10-13T04:36:12;12.37;;;10.67;;
5357;SDS011;2702;51.014;7.170;2023-10-13T04:38:51;12.73;;;11.53;;
5357;SDS011;2702;51.014;7.170;2023-10-13T04:44:08;11.47;;;10.30;;
5357;SDS011;2702;51.014;7.170;2023-10-13T04:46:55;12.13;;;11.00;;
5357;SDS011;2702;51.014;7.170;2023-10-13T04:49:27;11.00;;;9.90;;
5357;SDS011;2702;51.014;7.170;2023-10-13T04:54:39;13.00;;;11.00;;
5357;SDS011;2702;51.014;7.170;2023-10-13T04:57:35;11.50;;;10.00;;
5357;SDS011;2702;51.014;7.170;2023-10-13T05:00:11;11.40;;;10.30;;
5357;SDS011;2702;51.014;7.170;2023-10-13T05:02:39;11.80;;;10.20;;
5357;SDS011;2702;51.014;7.170;2023-10-13T05:05:27;12.87;;;10.37;;
5357;SDS011;2702;51.014;7.170;2023-10-13T05:08:12;11.07;;;10.07;;
5357;SDS011;2702;51.014;7.170;2023-10-13T05:10:57;11.30;;;9.93;;
5357;SDS011;2702;51.014;7.170;2023-10-13T05:14:00;10.30;;;9.30;;
5357;SDS011;2702;51.014;7.170;2023-10-13T05:16:45;10.60;;;9.57;;
5357;SDS011;2702;51.014;7.170;2023-10-13T05:19:30;12.30;;;9.80;;
5357;SDS011;2702;51.014;7.170;2023-10-13T05:22:14;13.30;;;10.00;;
